| time (UTC) | temp F | wind direction | speed knots | gust knots | rain 1hr in | rain 24hr in | rain mn in | humidity % | barometer mb |
| 20260510225120 | 62 | 0.0 | 0.0 | 0.00 | 0.00 | 0.00 | 74 | 1015.6 | |
| 20260510224118 | 63 | 0.0 | 0.0 | 0.00 | 0.00 | 0.00 | 75 | 1015.6 | |
| 20260510223131 | 63 | 0.0 | 1.7 | 0.00 | 0.00 | 0.00 | 73 | 1015.7 | |
| 20260510222121 | 62 | 0.0 | 0.0 | 0.00 | 0.00 | 0.00 | 75 | 1015.8 | |
| 20260510221142 | 62 | 105 | 0.0 | 0.9 | 0.00 | 0.00 | 0.00 | 75 | 1015.6 |
| 20260510220116 | 62 | 0.0 | 0.0 | 0.00 | 0.00 | 0.00 | 76 | 1015.6 | |
| 20260510215122 | 62 | 0.0 | 0.0 | 0.00 | 0.00 | 0.00 | 73 | 1015.6 | |
| 20260510214145 | 62 | 0.0 | 1.7 | 0.00 | 0.00 | 0.00 | 71 | 1015.5 | |
| 20260510213132 | 62 | 0.0 | 2.6 | 0.00 | 0.00 | 0.00 | 71 | 1015.3 | |
| 20260510212122 | 62 | 0.0 | 0.0 | 0.00 | 0.00 | 0.00 | 71 | 1015.1 | |
| 20260510211140 | 62 | 0.0 | 0.0 | 0.00 | 0.00 | 0.00 | 70 | 1015.2 | |
| 20260510210119 | 62 | 0.0 | 0.0 | 0.00 | 0.00 | 0.00 | 69 | 1015.0 | |
| 20260510205125 | 62 | 107 | 0.0 | 0.9 | 0.00 | 0.00 | 0.00 | 75 | 1015.2 |
| 20260510204145 | 63 | 104 | 0.0 | 1.7 | 0.00 | 0.00 | 0.00 | 63 | 1015.1 |
| 20260510203116 | 65 | 98 | 0.0 | 1.7 | 0.00 | 0.00 | 0.00 | 56 | 1014.8 |
| 20260510202124 | 66 | 76 | 3.5 | 5.2 | 0.00 | 0.00 | 0.00 | 52 | 1014.8 |
| 20260510201125 | 68 | 92 | 0.0 | 1.7 | 0.00 | 0.00 | 0.00 | 48 | 1014.3 |
| 20260510200125 | 69 | 92 | 1.7 | 1.7 | 0.00 | 0.00 | 0.00 | 50 | 1014.3 |
| 20260510195125 | 69 | 95 | 0.9 | 1.7 | 0.00 | 0.00 | 0.00 | 51 | 1014.2 |
| 20260510194115 | 69 | 102 | 0.9 | 0.9 | 0.00 | 0.00 | 0.00 | 53 | 1014.4 |
| 20260510193117 | 69 | 114 | 0.0 | 1.7 | 0.00 | 0.00 | 0.00 | 54 | 1014.2 |
| 20260510192125 | 69 | 95 | 0.0 | 0.9 | 0.00 | 0.00 | 0.00 | 56 | 1014.4 |
| 20260510191143 | 69 | 91 | 0.9 | 2.6 | 0.00 | 0.00 | 0.00 | 56 | 1014.4 |
| 20260510190146 | 69 | 90 | 1.7 | 3.5 | 0.00 | 0.00 | 0.00 | 56 | 1014.4 |
| 20260510185136 | 69 | 105 | 0.9 | 2.6 | 0.00 | 0.00 | 0.00 | 57 | 1014.6 |
| 20260510184116 | 69 | 107 | 0.0 | 0.9 | 0.00 | 0.00 | 0.00 | 54 | 1014.8 |
| 20260510183119 | 69 | 88 | 0.9 | 2.6 | 0.00 | 0.00 | 0.00 | 54 | 1014.7 |
| 20260510182124 | 69 | 89 | 0.9 | 3.5 | 0.00 | 0.00 | 0.00 | 55 | 1014.6 |
| 20260510181124 | 69 | 83 | 1.7 | 3.5 | 0.00 | 0.00 | 0.00 | 55 | 1014.3 |
| 20260510180115 | 68 | 57 | 1.7 | 2.6 | 0.00 | 0.00 | 0.00 | 57 | 1014.6 |
| 20260510175117 | 68 | 96 | 0.9 | 1.7 | 0.00 | 0.00 | 0.00 | 61 | 1014.7 |
| 20260510174117 | 67 | 104 | 0.9 | 3.5 | 0.00 | 0.00 | 0.00 | 64 | 1014.7 |
| 20260510173138 | 68 | 61 | 2.6 | 5.2 | 0.00 | 0.00 | 0.00 | 63 | 1014.9 |
| 20260510172123 | 68 | 101 | 0.9 | 1.7 | 0.00 | 0.00 | 0.00 | 61 | 1014.6 |
| 20260510171142 | 68 | 97 | 0.9 | 1.7 | 0.00 | 0.00 | 0.00 | 64 | 1014.8 |
| 20260510170116 | 68 | 139 | 1.7 | 2.6 | 0.00 | 0.00 | 0.00 | 62 | 1014.7 |
| 20260510165138 | 67 | 101 | 0.0 | 0.9 | 0.00 | 0.00 | 0.00 | 68 | 1014.6 |
| 20260510164138 | 66 | 85 | 0.9 | 1.7 | 0.00 | 0.00 | 0.00 | 70 | 1015.1 |
| 20260510163124 | 65 | 120 | 1.7 | 1.7 | 0.00 | 0.00 | 0.00 | 71 | 1015.1 |
| 20260510162122 | 65 | 97 | 0.9 | 2.6 | 0.00 | 0.00 | 0.00 | 68 | 1015.1 |
| 20260510161137 | 65 | 99 | 1.7 | 2.6 | 0.00 | 0.00 | 0.00 | 67 | 1015.1 |
| 20260510160123 | 64 | 102 | 0.0 | 1.7 | 0.00 | 0.00 | 0.00 | 70 | 1015.2 |
| 20260510155118 | 64 | 51 | 2.6 | 5.2 | 0.00 | 0.00 | 0.00 | 69 | 1015.3 |
| 20260510154119 | 65 | 100 | 0.9 | 2.6 | 0.00 | 0.00 | 0.00 | 72 | 1015.4 |
| 20260510153126 | 63 | 91 | 2.6 | 5.2 | 0.00 | 0.00 | 0.00 | 75 | 1015.5 |
| 20260510152121 | 62 | 108 | 0.0 | 1.7 | 0.00 | 0.00 | 0.00 | 78 | 1015.4 |
| 20260510151158 | 60 | 104 | 0.9 | 1.7 | 0.00 | 0.00 | 0.00 | 80 | 1015.7 |
| 20260510150118 | 60 | 100 | 0.9 | 1.7 | 0.00 | 0.00 | 0.00 | 80 | 1015.6 |
| 20260510145140 | 60 | 0.0 | 0.9 | 0.00 | 0.00 | 0.00 | 81 | 1015.4 | |
| 20260510144120 | 59 | 107 | 0.0 | 2.6 | 0.00 | 0.00 | 0.00 | 81 | 1015.3 |
| 20260510143120 | 60 | 84 | 1.7 | 3.5 | 0.00 | 0.00 | 0.00 | 81 | 1015.5 |
| 20260510142129 | 59 | 82 | 1.7 | 2.6 | 0.00 | 0.00 | 0.00 | 83 | 1015.7 |
| 20260510141118 | 58 | 100 | 0.9 | 2.6 | 0.00 | 0.00 | 0.00 | 84 | 1015.5 |
| 20260510140119 | 58 | 96 | 1.7 | 2.6 | 0.00 | 0.00 | 0.00 | 82 | 1015.5 |
| 20260510135120 | 56 | 114 | 0.0 | 0.9 | 0.00 | 0.00 | 0.00 | 90 | 1015.4 |
| 20260510134122 | 55 | 105 | 0.9 | 1.7 | 0.00 | 0.00 | 0.00 | 90 | 1015.2 |
| 20260510133123 | 55 | 101 | 0.9 | 1.7 | 0.00 | 0.00 | 0.00 | 91 | 1015.4 |
| 20260510132149 | 54 | 96 | 0.9 | 1.7 | 0.00 | 0.00 | 0.00 | 94 | 1015.4 |
| 20260510131120 | 53 | 0.0 | 0.0 | 0.00 | 0.00 | 0.00 | 96 | 1015.4 | |
| 20260510130120 | 53 | 106 | 0.0 | 0.9 | 0.00 | 0.00 | 0.00 | 96 | 1015.4 |
| 20260510125122 | 53 | 0.0 | 0.9 | 0.00 | 0.00 | 0.00 | 97 | 1015.3 | |
| 20260510124117 | 53 | 0.0 | 0.0 | 0.00 | 0.00 | 0.00 | 98 | 1015.1 | |
| 20260510123124 | 52 | 0.0 | 0.9 | 0.00 | 0.00 | 0.00 | 98 | 1015.1 | |
| 20260510122131 | 52 | 0.0 | 0.0 | 0.00 | 0.00 | 0.00 | 98 | 1015.0 | |
| 20260510121121 | 51 | 0.0 | 0.0 | 0.00 | 0.00 | 0.00 | 98 | 1015.1 | |
| 20260510120122 | 51 | 0.0 | 0.0 | 0.00 | 0.00 | 0.00 | 99 | 1015.0 | |
| 20260510115122 | 50 | 0.0 | 0.0 | 0.00 | 0.00 | 0.00 | 99 | 1015.0 | |
| 20260510114144 | 50 | 0.0 | 0.0 | 0.00 | 0.00 | 0.00 | 99 | 1015.0 | |
| 20260510113125 | 50 | 0.0 | 0.0 | 0.00 | 0.00 | 0.00 | 99 | 1014.9 | |
| 20260510112132 | 50 | 0.0 | 0.9 | 0.00 | 0.00 | 0.00 | 99 | 1014.8 | |
| 20260510111142 | 50 | 107 | 0.0 | 0.9 | 0.00 | 0.00 | 0.00 | 99 | 1014.6 |
| 20260510110122 | 50 | 0.0 | 0.0 | 0.00 | 0.00 | 0.00 | 99 | 1014.8 | |
| 20260510105123 | 50 | 0.0 | 0.0 | 0.00 | 0.00 | 0.00 | 99 | 1014.6 | |
| 20260510104124 | 50 | 0.0 | 0.0 | 0.00 | 0.00 | 0.00 | 99 | 1014.6 | |
| 20260510103206 | 50 | 0.0 | 0.0 | 0.00 | 0.00 | 0.00 | 99 | 1014.3 | |
| 20260510102116 | 50 | 0.0 | 0.0 | 0.00 | 0.00 | 0.00 | 99 | 1014.3 | |
| 20260510101120 | 50 | 0.0 | 0.0 | 0.00 | 0.00 | 0.00 | 99 | 1014.3 | |
| 20260510100144 | 49 | 0.0 | 0.0 | 0.00 | 0.00 | 0.00 | 99 | 1014.1 | |
| 20260510095124 | 49 | 96 | 0.9 | 0.9 | 0.00 | 0.00 | 0.00 | 99 | 1013.9 |
| 20260510094119 | 49 | 111 | 0.9 | 0.9 | 0.00 | 0.00 | 0.00 | 99 | 1013.8 |
| 20260510093116 | 49 | 0.0 | 0.0 | 0.00 | 0.00 | 0.00 | 99 | 1014.1 | |
| 20260510092117 | 49 | 109 | 0.0 | 0.9 | 0.00 | 0.00 | 0.00 | 99 | 1013.9 |
| 20260510091123 | 49 | 0.0 | 1.7 | 0.00 | 0.00 | 0.00 | 99 | 1014.1 | |
| 20260510090116 | 50 | 104 | 0.9 | 0.9 | 0.00 | 0.00 | 0.00 | 99 | 1014.1 |
| 20260510085122 | 50 | 0.0 | 0.9 | 0.00 | 0.00 | 0.00 | 99 | 1014.2 | |
| 20260510084117 | 49 | 104 | 0.0 | 0.9 | 0.00 | 0.00 | 0.00 | 99 | 1014.1 |
| 20260510083137 | 49 | 0.0 | 0.0 | 0.00 | 0.00 | 0.00 | 99 | 1014.0 | |
| 20260510082118 | 49 | 0.0 | 0.0 | 0.00 | 0.00 | 0.00 | 99 | 1013.9 | |
| 20260510081124 | 49 | 0.0 | 0.9 | 0.00 | 0.00 | 0.00 | 99 | 1014.0 | |
| 20260510080125 | 49 | 0.0 | 0.0 | 0.00 | 0.00 | 0.00 | 99 | 1014.3 | |
| 20260510075138 | 49 | 0.0 | 0.9 | 0.00 | 0.00 | 0.00 | 99 | 1014.1 | |
| 20260510074124 | 49 | 0.0 | 0.0 | 0.00 | 0.00 | 0.00 | 99 | 1014.2 | |
| 20260510073118 | 49 | 109 | 0.0 | 0.9 | 0.00 | 0.00 | 0.00 | 99 | 1013.8 |
| 20260510072119 | 49 | 104 | 0.9 | 0.9 | 0.00 | 0.00 | 0.00 | 99 | 1013.9 |
| 20260510071125 | 49 | 0.0 | 0.0 | 0.00 | 0.00 | 0.00 | 99 | 1013.9 | |
| 20260510070116 | 50 | 105 | 0.9 | 0.9 | 0.00 | 0.00 | 0.00 | 99 | 1013.9 |
| 20260510065124 | 50 | 101 | 0.0 | 0.9 | 0.00 | 0.00 | 0.00 | 99 | 1013.8 |
| 20260510064119 | 50 | 0.0 | 0.0 | 0.00 | 0.00 | 0.00 | 99 | 1014.0 | |
| 20260510063119 | 50 | 96 | 1.7 | 1.7 | 0.00 | 0.00 | 0.00 | 99 | 1013.7 |
| 20260510062120 | 50 | 0.0 | 0.0 | 0.00 | 0.00 | 0.00 | 99 | 1013.8 | |
| 20260510061121 | 50 | 107 | 0.9 | 0.9 | 0.00 | 0.00 | 0.00 | 99 | 1013.7 |
| 20260510060119 | 50 | 0.0 | 0.9 | 0.00 | 0.00 | 0.00 | 99 | 1013.6 | |
| 20260510055124 | 50 | 0.0 | 0.0 | 0.00 | 0.00 | 0.00 | 99 | 1013.7 | |
| 20260510054124 | 50 | 0.0 | 0.0 | 0.00 | 0.00 | 0.00 | 99 | 1013.7 | |
| 20260510053120 | 50 | 0.0 | 0.0 | 0.00 | 0.00 | 0.00 | 99 | 1013.7 | |
| 20260510052121 | 51 | 0.0 | 0.0 | 0.00 | 0.00 | 0.00 | 99 | 1013.9 | |
| 20260510051136 | 51 | 0.0 | 0.0 | 0.00 | 0.00 | 0.00 | 99 | 1013.8 | |
| 20260510050117 | 51 | 0.0 | 0.0 | 0.00 | 0.00 | 0.00 | 99 | 1013.8 | |
| 20260510045117 | 51 | 0.0 | 0.0 | 0.00 | 0.00 | 0.00 | 99 | 1013.9 | |
| 20260510044120 | 51 | 113 | 0.0 | 0.9 | 0.00 | 0.00 | 0.00 | 98 | 1013.8 |
| 20260510043141 | 51 | 0.0 | 0.0 | 0.00 | 0.00 | 0.00 | 98 | 1013.7 | |
| 20260510042122 | 51 | 0.0 | 0.0 | 0.00 | 0.00 | 0.00 | 98 | 1013.5 | |
| 20260510041117 | 51 | 0.0 | 0.0 | 0.00 | 0.00 | 0.00 | 98 | 1013.7 | |
| 20260510040116 | 51 | 0.0 | 0.0 | 0.00 | 0.00 | 0.00 | 98 | 1013.7 | |
| 20260510035140 | 51 | 0.0 | 0.0 | 0.00 | 0.00 | 0.00 | 98 | 1014.0 | |
| 20260510034121 | 51 | 0.0 | 0.0 | 0.00 | 0.00 | 0.00 | 98 | 1013.8 | |
| 20260510033122 | 51 | 105 | 0.9 | 0.9 | 0.00 | 0.00 | 0.00 | 98 | 1013.9 |
| 20260510032123 | 51 | 0.0 | 0.9 | 0.00 | 0.00 | 0.00 | 98 | 1013.8 | |
| 20260510031124 | 51 | 0.0 | 1.7 | 0.00 | 0.00 | 0.00 | 98 | 1014.1 | |
| 20260510030143 | 51 | 96 | 0.9 | 1.7 | 0.00 | 0.00 | 0.00 | 98 | 1013.8 |
| 20260510025121 | 51 | 0.0 | 0.9 | 0.00 | 0.00 | 0.00 | 98 | 1013.6 | |
| 20260510024142 | 51 | 108 | 0.0 | 0.9 | 0.00 | 0.00 | 0.00 | 98 | 1013.6 |
| 20260510023124 | 51 | 108 | 0.0 | 1.7 | 0.00 | 0.00 | 0.00 | 98 | 1013.6 |
| 20260510022115 | 51 | 104 | 0.9 | 1.7 | 0.00 | 0.00 | 0.00 | 98 | 1013.8 |
| 20260510021125 | 51 | 101 | 0.9 | 0.9 | 0.00 | 0.00 | 0.00 | 98 | 1013.7 |
| 20260510020126 | 51 | 110 | 0.0 | 0.9 | 0.00 | 0.00 | 0.00 | 98 | 1014.0 |
| 20260510015122 | 51 | 0.0 | 0.0 | 0.00 | 0.00 | 0.00 | 98 | 1014.1 | |
| 20260510014143 | 51 | 0.0 | 0.9 | 0.00 | 0.00 | 0.00 | 98 | 1014.0 | |
| 20260510013125 | 51 | 0.0 | 0.0 | 0.00 | 0.00 | 0.00 | 98 | 1014.1 | |
| 20260510012146 | 51 | 105 | 0.0 | 0.9 | 0.00 | 0.00 | 0.00 | 98 | 1013.9 |
| 20260510011118 | 51 | 0.0 | 0.0 | 0.00 | 0.00 | 0.00 | 98 | 1013.7 | |
| 20260510010122 | 51 | 0.0 | 0.9 | 0.00 | 0.00 | 0.00 | 98 | 1013.7 | |
| 20260510005144 | 51 | 107 | 0.9 | 0.9 | 0.00 | 0.00 | 0.00 | 98 | 1013.4 |
| 20260510004124 | 51 | 0.0 | 0.9 | 0.00 | 0.00 | 0.00 | 98 | 1013.4 | |
| 20260510003116 | 51 | 111 | 0.0 | 0.9 | 0.00 | 0.00 | 0.00 | 98 | 1013.4 |
| 20260510002143 | 51 | 101 | 0.9 | 1.7 | 0.00 | 0.00 | 0.00 | 98 | 1013.2 |
| 20260510001118 | 51 | 112 | 0.0 | 0.9 | 0.00 | 0.00 | 0.00 | 98 | 1013.1 |
| 20260510000123 | 51 | 110 | 0.0 | 0.9 | 0.00 | 0.00 | 0.00 | 98 | 1013.0 |
| 20260509235124 | 51 | 97 | 0.9 | 1.7 | 0.00 | 0.00 | 0.00 | 98 | 1013.1 |
| 20260509234125 | 51 | 51 | 1.7 | 2.6 | 0.00 | 0.00 | 0.00 | 97 | 1013.0 |
| 20260509233122 | 51 | 104 | 0.9 | 1.7 | 0.00 | 0.00 | 0.00 | 97 | 1013.2 |
| 20260509232117 | 51 | 82 | 0.9 | 1.7 | 0.00 | 0.00 | 0.00 | 97 | 1013.1 |
| 20260509231116 | 51 | 108 | 0.0 | 0.9 | 0.00 | 0.00 | 0.00 | 97 | 1013.4 |
| 20260509230124 | 51 | 108 | 0.0 | 2.6 | 0.00 | 0.00 | 0.00 | 97 | 1013.5 |